Главная страница
METAR-TAF:

METAR-TAF

Аэропорты :

Корор, Бабелтуап, Палау

широта: 07-22N, долгота: 134-32E, высота над уровнем моря: 54 м

Текущие метеонаблюдения

Эта сводка был подготовлена 58 минут назад, в 10:50 UTC
Ветер 8 Узел от юго-западный с порывами до 16 Узел
Температура 28°C
Влажность 79%
Давление 1008 hPa
Видимость: 22.5 км
Отдельные облака на высоте 1600 фута
Рассеянная облачность на высоте 12000 фута
Рассеянная облачность на высоте 30000 фута

METAR: PTRO 241050Z 23008G16KT 14SM SCT016 BKN120 BKN300 28/24 A2976

Время: 20:48 (11:48 UTC)

Прогноз

Эта сводка был подготовлена 28 минут назад, в 11:20 UTC
Прогноз действительный с 24-го 12 UTC до 25-го 12 UTC
Ветер 11 Узел от юго-западный
Видимость: 10 км
Отдельные облака на высоте 1600 фута
Рассеянная облачность на высоте 12000 фута
Рассеянная облачность на высоте 30000 фута
ливни в окрестностях

TAF: PTRO 241120Z 2412/2512 23011KT P6SM VCSH SCT016 BKN120 BKN300

Метеонаблюдения и прогнозы для более 4000 аэропортов (сводки METAR и TAF).

Имеющиеся станции представлены на карте желтыми и красными точками.

Чтобы увидеть название станции, наведите на нее мышь.

Затем щелкните, чтобы увидеть метеонаблюдения и метеопрогнозы.

Управление картой: чтобы увеличить масштаб, щелкните зеленые кнопки с черным крестиком; чтобы уменьшить масштаб, щелкните зеленую кнопку с тире; для просмотра соседних карт щелкайте зеленые стрелки.


METAR-TAF: